sensor_id;sensor_type;location;lat;lon;timestamp;pressure;altitude;pressure_sealevel;temperature;humidity
76257;BME280;65074;50.436;8.672;2023-07-09T00:02:11;99685.03;;;22.67;58.44
76257;BME280;65074;50.436;8.672;2023-07-09T00:04:37;99684.06;;;22.63;58.55
76257;BME280;65074;50.436;8.672;2023-07-09T00:07:03;99685.78;;;22.59;59.14
76257;BME280;65074;50.436;8.672;2023-07-09T00:09:30;99677.72;;;22.54;59.23
76257;BME280;65074;50.436;8.672;2023-07-09T00:11:56;99678.69;;;22.50;59.67
76257;BME280;65074;50.436;8.672;2023-07-09T00:14:21;99683.50;;;22.44;60.05
76257;BME280;65074;50.436;8.672;2023-07-09T00:16:47;99680.91;;;22.39;60.22
76257;BME280;65074;50.436;8.672;2023-07-09T00:19:20;99684.94;;;22.33;61.27
76257;BME280;65074;50.436;8.672;2023-07-09T00:21:49;99689.59;;;22.24;61.80
76257;BME280;65074;50.436;8.672;2023-07-09T00:24:18;99700.19;;;22.17;62.12
76257;BME280;65074;50.436;8.672;2023-07-09T00:26:43;99697.91;;;22.11;62.57
76257;BME280;65074;50.436;8.672;2023-07-09T00:29:10;99694.22;;;22.07;62.33
76257;BME280;65074;50.436;8.672;2023-07-09T00:31:36;99696.09;;;21.97;62.07
76257;BME280;65074;50.436;8.672;2023-07-09T00:34:13;99700.91;;;21.92;62.51
76257;BME280;65074;50.436;8.672;2023-07-09T00:36:41;99690.88;;;21.87;62.94
76257;BME280;65074;50.436;8.672;2023-07-09T00:39:16;99698.09;;;21.83;63.18
76257;BME280;65074;50.436;8.672;2023-07-09T00:41:43;99694.38;;;21.79;63.68
76257;BME280;65074;50.436;8.672;2023-07-09T00:49:11;99693.97;;;21.64;64.04
76257;BME280;65074;50.436;8.672;2023-07-09T00:51:44;99694.09;;;21.59;63.94
76257;BME280;65074;50.436;8.672;2023-07-09T00:54:25;99695.06;;;21.54;64.03
76257;BME280;65074;50.436;8.672;2023-07-09T00:56:58;99689.03;;;21.44;64.64
76257;BME280;65074;50.436;8.672;2023-07-09T00:59:28;99688.78;;;21.31;65.00
76257;BME280;65074;50.436;8.672;2023-07-09T01:01:56;99687.00;;;21.27;65.47
76257;BME280;65074;50.436;8.672;2023-07-09T01:04:23;99699.03;;;21.26;65.05
76257;BME280;65074;50.436;8.672;2023-07-09T01:06:51;99691.47;;;21.23;64.99
76257;BME280;65074;50.436;8.672;2023-07-09T01:09:18;99694.03;;;21.19;65.11
76257;BME280;65074;50.436;8.672;2023-07-09T01:11:44;99697.38;;;21.16;64.73
76257;BME280;65074;50.436;8.672;2023-07-09T01:14:11;99687.03;;;21.13;64.45
76257;BME280;65074;50.436;8.672;2023-07-09T01:16:44;99691.03;;;21.07;64.48
76257;BME280;65074;50.436;8.672;2023-07-09T01:19:12;99689.69;;;21.05;64.53
76257;BME280;65074;50.436;8.672;2023-07-09T01:21:39;99700.97;;;21.03;64.79
76257;BME280;65074;50.436;8.672;2023-07-09T01:24:13;99692.56;;;21.00;64.90
76257;BME280;65074;50.436;8.672;2023-07-09T01:26:39;99697.03;;;20.96;65.17
76257;BME280;65074;50.436;8.672;2023-07-09T01:29:04;99696.72;;;20.97;65.03
76257;BME280;65074;50.436;8.672;2023-07-09T01:31:30;99688.84;;;20.96;65.42
76257;BME280;65074;50.436;8.672;2023-07-09T01:33:55;99700.06;;;20.94;65.35
76257;BME280;65074;50.436;8.672;2023-07-09T01:36:21;99699.56;;;20.92;65.50
76257;BME280;65074;50.436;8.672;2023-07-09T01:38:47;99705.66;;;20.89;65.74
76257;BME280;65074;50.436;8.672;2023-07-09T01:41:15;99704.66;;;20.85;65.81
76257;BME280;65074;50.436;8.672;2023-07-09T01:43:42;99707.50;;;20.80;66.40
76257;BME280;65074;50.436;8.672;2023-07-09T01:46:09;99693.13;;;20.74;66.46
76257;BME280;65074;50.436;8.672;2023-07-09T01:48:35;99691.22;;;20.75;66.39
76257;BME280;65074;50.436;8.672;2023-07-09T01:51:14;99699.41;;;20.75;66.87
76257;BME280;65074;50.436;8.672;2023-07-09T01:53:42;99696.47;;;20.71;66.96
76257;BME280;65074;50.436;8.672;2023-07-09T01:56:09;99694.38;;;20.68;66.49
76257;BME280;65074;50.436;8.672;2023-07-09T01:58:36;99693.34;;;20.64;66.17
76257;BME280;65074;50.436;8.672;2023-07-09T02:01:01;99697.84;;;20.60;66.07
76257;BME280;65074;50.436;8.672;2023-07-09T02:03:27;99700.69;;;20.55;66.27
76257;BME280;65074;50.436;8.672;2023-07-09T02:05:53;99711.72;;;20.50;66.71
76257;BME280;65074;50.436;8.672;2023-07-09T02:08:21;99709.41;;;20.44;66.51
76257;BME280;65074;50.436;8.672;2023-07-09T02:10:49;99700.50;;;20.38;66.94
76257;BME280;65074;50.436;8.672;2023-07-09T02:13:16;99705.97;;;20.38;67.36
76257;BME280;65074;50.436;8.672;2023-07-09T02:15:44;99704.16;;;20.34;68.10
76257;BME280;65074;50.436;8.672;2023-07-09T02:18:12;99709.22;;;20.27;69.17
76257;BME280;65074;50.436;8.672;2023-07-09T02:20:37;99704.94;;;20.21;69.67
76257;BME280;65074;50.436;8.672;2023-07-09T02:23:03;99706.16;;;20.15;70.46
76257;BME280;65074;50.436;8.672;2023-07-09T02:25:29;99708.38;;;20.12;72.35
76257;BME280;65074;50.436;8.672;2023-07-09T02:27:55;99710.69;;;20.05;73.42
76257;BME280;65074;50.436;8.672;2023-07-09T02:30:20;99713.25;;;20.02;75.01
76257;BME280;65074;50.436;8.672;2023-07-09T02:32:45;99713.13;;;19.93;75.65
76257;BME280;65074;50.436;8.672;2023-07-09T02:35:11;99713.22;;;19.88;77.20
76257;BME280;65074;50.436;8.672;2023-07-09T02:37:36;99713.41;;;19.78;77.85
76257;BME280;65074;50.436;8.672;2023-07-09T02:40:03;99716.53;;;19.72;80.56
76257;BME280;65074;50.436;8.672;2023-07-09T02:42:29;99724.50;;;19.68;81.05
76257;BME280;65074;50.436;8.672;2023-07-09T02:44:54;99725.72;;;19.62;82.22
76257;BME280;65074;50.436;8.672;2023-07-09T02:47:23;99723.91;;;19.58;82.43
76257;BME280;65074;50.436;8.672;2023-07-09T02:49:49;99726.91;;;19.56;82.82
76257;BME280;65074;50.436;8.672;2023-07-09T02:52:14;99731.34;;;19.52;82.71
76257;BME280;65074;50.436;8.672;2023-07-09T02:54:40;99724.34;;;19.46;82.60
76257;BME280;65074;50.436;8.672;2023-07-09T02:57:05;99731.53;;;19.42;82.94
76257;BME280;65074;50.436;8.672;2023-07-09T02:59:31;99729.16;;;19.35;82.28
76257;BME280;65074;50.436;8.672;2023-07-09T03:01:59;99730.84;;;19.31;82.55
76257;BME280;65074;50.436;8.672;2023-07-09T03:04:24;99735.56;;;19.26;83.27
76257;BME280;65074;50.436;8.672;2023-07-09T03:06:50;99735.63;;;19.21;82.99
76257;BME280;65074;50.436;8.672;2023-07-09T03:09:15;99737.66;;;19.15;83.06
76257;BME280;65074;50.436;8.672;2023-07-09T03:11:41;99735.28;;;19.09;85.04
76257;BME280;65074;50.436;8.672;2023-07-09T03:14:07;99746.00;;;19.05;85.29
76257;BME280;65074;50.436;8.672;2023-07-09T03:16:34;99746.06;;;19.00;85.51
76257;BME280;65074;50.436;8.672;2023-07-09T03:18:59;99747.47;;;18.98;86.17
76257;BME280;65074;50.436;8.672;2023-07-09T03:21:27;99752.69;;;18.94;86.05
76257;BME280;65074;50.436;8.672;2023-07-09T03:23:54;99759.53;;;18.92;86.67
76257;BME280;65074;50.436;8.672;2023-07-09T03:26:20;99758.50;;;18.88;87.24
76257;BME280;65074;50.436;8.672;2023-07-09T03:28:45;99757.19;;;18.85;87.36
76257;BME280;65074;50.436;8.672;2023-07-09T03:31:11;99756.94;;;18.81;87.26
76257;BME280;65074;50.436;8.672;2023-07-09T03:33:36;99767.84;;;18.81;87.83
76257;BME280;65074;50.436;8.672;2023-07-09T03:36:02;99757.75;;;18.82;87.85
76257;BME280;65074;50.436;8.672;2023-07-09T03:38:29;99766.44;;;18.84;87.23
76257;BME280;65074;50.436;8.672;2023-07-09T03:40:55;99767.00;;;18.86;87.22
76257;BME280;65074;50.436;8.672;2023-07-09T03:43:22;99763.66;;;18.89;86.93
76257;BME280;65074;50.436;8.672;2023-07-09T03:45:48;99769.34;;;18.93;86.45
76257;BME280;65074;50.436;8.672;2023-07-09T03:48:15;99768.47;;;18.97;86.16
76257;BME280;65074;50.436;8.672;2023-07-09T03:50:41;99774.41;;;18.99;85.61
76257;BME280;65074;50.436;8.672;2023-07-09T03:53:07;99770.28;;;19.02;85.26
76257;BME280;65074;50.436;8.672;2023-07-09T03:55:32;99773.53;;;19.04;84.93
76257;BME280;65074;50.436;8.672;2023-07-09T03:57:58;99780.63;;;19.05;84.88
76257;BME280;65074;50.436;8.672;2023-07-09T04:00:24;99778.97;;;19.04;85.31
76257;BME280;65074;50.436;8.672;2023-07-09T04:02:52;99773.84;;;19.02;85.06
76257;BME280;65074;50.436;8.672;2023-07-09T04:05:18;99774.66;;;19.03;84.94
76257;BME280;65074;50.436;8.672;2023-07-09T04:07:43;99771.13;;;19.02;84.85
76257;BME280;65074;50.436;8.672;2023-07-09T04:10:10;99776.25;;;19.04;84.63
76257;BME280;65074;50.436;8.672;2023-07-09T04:12:36;99777.59;;;19.06;85.01
76257;BME280;65074;50.436;8.672;2023-07-09T04:15:03;99785.69;;;19.11;84.96
76257;BME280;65074;50.436;8.672;2023-07-09T04:17:29;99779.97;;;19.13;84.63
76257;BME280;65074;50.436;8.672;2023-07-09T04:19:54;99791.31;;;19.20;84.75
76257;BME280;65074;50.436;8.672;2023-07-09T04:22:19;99786.06;;;19.23;84.73
76257;BME280;65074;50.436;8.672;2023-07-09T04:24:45;99784.38;;;19.27;85.18
76257;BME280;65074;50.436;8.672;2023-07-09T04:27:11;99779.94;;;19.31;84.71
76257;BME280;65074;50.436;8.672;2023-07-09T04:29:39;99781.06;;;19.30;84.55
76257;BME280;65074;50.436;8.672;2023-07-09T04:32:12;99786.59;;;19.25;85.28
76257;BME280;65074;50.436;8.672;2023-07-09T04:34:37;99782.47;;;19.28;85.10
76257;BME280;65074;50.436;8.672;2023-07-09T04:37:06;99781.84;;;19.31;85.54
76257;BME280;65074;50.436;8.672;2023-07-09T04:39:32;99777.97;;;19.37;84.99
76257;BME280;65074;50.436;8.672;2023-07-09T04:41:57;99785.78;;;19.43;85.02
76257;BME280;65074;50.436;8.672;2023-07-09T04:44:23;99785.13;;;19.52;84.77
76257;BME280;65074;50.436;8.672;2023-07-09T04:46:48;99775.13;;;19.61;84.83
76257;BME280;65074;50.436;8.672;2023-07-09T04:49:14;99779.91;;;19.69;84.65
76257;BME280;65074;50.436;8.672;2023-07-09T04:51:39;99780.34;;;19.76;85.01
76257;BME280;65074;50.436;8.672;2023-07-09T04:54:05;99776.91;;;19.84;84.80
76257;BME280;65074;50.436;8.672;2023-07-09T04:56:30;99777.16;;;19.87;84.90
76257;BME280;65074;50.436;8.672;2023-07-09T04:58:56;99780.75;;;19.83;85.28
76257;BME280;65074;50.436;8.672;2023-07-09T05:01:22;99770.44;;;19.80;85.95
76257;BME280;65074;50.436;8.672;2023-07-09T05:03:47;99779.88;;;19.87;85.45
76257;BME280;65074;50.436;8.672;2023-07-09T05:06:13;99770.97;;;19.95;84.96
76257;BME280;65074;50.436;8.672;2023-07-09T05:08:39;99784.25;;;20.02;84.52
76257;BME280;65074;50.436;8.672;2023-07-09T05:11:04;99780.09;;;20.04;84.47
76257;BME280;65074;50.436;8.672;2023-07-09T05:13:29;99781.44;;;20.07;84.39
76257;BME280;65074;50.436;8.672;2023-07-09T05:15:55;99777.19;;;20.15;84.12
76257;BME280;65074;50.436;8.672;2023-07-09T05:18:20;99774.78;;;20.27;82.96
76257;BME280;65074;50.436;8.672;2023-07-09T05:20:46;99774.38;;;20.33;83.14
76257;BME280;65074;50.436;8.672;2023-07-09T05:23:12;99780.88;;;20.51;81.97
76257;BME280;65074;50.436;8.672;2023-07-09T05:25:37;99777.00;;;20.65;81.09
76257;BME280;65074;50.436;8.672;2023-07-09T05:28:04;99775.69;;;20.63;81.17
76257;BME280;65074;50.436;8.672;2023-07-09T05:30:29;99781.44;;;20.75;81.00
76257;BME280;65074;50.436;8.672;2023-07-09T05:32:55;99778.81;;;20.84;80.34
76257;BME280;65074;50.436;8.672;2023-07-09T05:35:23;99781.19;;;20.99;79.87
76257;BME280;65074;50.436;8.672;2023-07-09T05:37:51;99785.16;;;20.93;80.42
76257;BME280;65074;50.436;8.672;2023-07-09T05:40:16;99790.13;;;20.91;80.60
76257;BME280;65074;50.436;8.672;2023-07-09T05:42:41;99783.06;;;20.76;80.69
76257;BME280;65074;50.436;8.672;2023-07-09T05:45:07;99787.91;;;20.93;80.37
76257;BME280;65074;50.436;8.672;2023-07-09T05:47:33;99794.38;;;21.10;79.54
76257;BME280;65074;50.436;8.672;2023-07-09T05:49:58;99790.66;;;21.28;79.38
76257;BME280;65074;50.436;8.672;2023-07-09T05:52:23;99796.91;;;21.43;78.30
76257;BME280;65074;50.436;8.672;2023-07-09T05:54:50;99794.59;;;21.58;78.23
76257;BME280;65074;50.436;8.672;2023-07-09T05:57:16;99793.41;;;21.73;78.18
76257;BME280;65074;50.436;8.672;2023-07-09T05:59:41;99802.06;;;21.88;78.49
76257;BME280;65074;50.436;8.672;2023-07-09T06:02:14;99803.00;;;22.06;78.41
76257;BME280;65074;50.436;8.672;2023-07-09T06:04:40;99800.47;;;22.18;77.74
76257;BME280;65074;50.436;8.672;2023-07-09T06:07:07;99799.88;;;22.30;77.34
76257;BME280;65074;50.436;8.672;2023-07-09T06:09:33;99804.63;;;22.46;76.53
76257;BME280;65074;50.436;8.672;2023-07-09T06:11:58;99798.69;;;22.53;76.11
76257;BME280;65074;50.436;8.672;2023-07-09T06:14:25;99795.34;;;22.64;75.27
76257;BME280;65074;50.436;8.672;2023-07-09T06:16:50;99807.66;;;22.76;73.35
76257;BME280;65074;50.436;8.672;2023-07-09T06:19:16;99803.16;;;22.80;69.41
76257;BME280;65074;50.436;8.672;2023-07-09T06:21:41;99807.19;;;22.74;69.37
76257;BME280;65074;50.436;8.672;2023-07-09T06:24:07;99802.00;;;22.72;70.38
76257;BME280;65074;50.436;8.672;2023-07-09T06:26:33;99802.50;;;22.91;70.09
76257;BME280;65074;50.436;8.672;2023-07-09T06:28:58;99807.88;;;23.05;68.01
76257;BME280;65074;50.436;8.672;2023-07-09T06:31:24;99801.28;;;23.06;67.29
76257;BME280;65074;50.436;8.672;2023-07-09T06:33:50;99805.16;;;23.22;66.82
76257;BME280;65074;50.436;8.672;2023-07-09T06:36:16;99803.38;;;23.35;65.84
76257;BME280;65074;50.436;8.672;2023-07-09T06:38:42;99807.28;;;23.51;64.94
76257;BME280;65074;50.436;8.672;2023-07-09T06:41:07;99815.84;;;23.66;63.74
76257;BME280;65074;50.436;8.672;2023-07-09T06:43:34;99810.97;;;23.80;62.34
76257;BME280;65074;50.436;8.672;2023-07-09T06:46:00;99815.47;;;23.93;61.39
76257;BME280;65074;50.436;8.672;2023-07-09T06:48:27;99815.94;;;24.13;60.48
76257;BME280;65074;50.436;8.672;2023-07-09T06:50:54;99809.44;;;24.26;59.66
76257;BME280;65074;50.436;8.672;2023-07-09T06:53:20;99817.78;;;24.38;58.16
76257;BME280;65074;50.436;8.672;2023-07-09T06:55:46;99817.91;;;24.50;57.78
76257;BME280;65074;50.436;8.672;2023-07-09T06:58:12;99819.47;;;24.59;56.29
76257;BME280;65074;50.436;8.672;2023-07-09T07:00:38;99815.22;;;24.71;56.15
76257;BME280;65074;50.436;8.672;2023-07-09T07:03:05;99818.09;;;24.83;56.12
76257;BME280;65074;50.436;8.672;2023-07-09T07:05:30;99813.50;;;24.95;56.25
76257;BME280;65074;50.436;8.672;2023-07-09T07:07:56;99811.00;;;25.02;56.12
76257;BME280;65074;50.436;8.672;2023-07-09T07:10:21;99810.81;;;25.07;55.47
76257;BME280;65074;50.436;8.672;2023-07-09T07:12:48;99812.41;;;25.08;55.30
76257;BME280;65074;50.436;8.672;2023-07-09T07:15:16;99811.34;;;25.21;54.92
76257;BME280;65074;50.436;8.672;2023-07-09T07:17:42;99812.91;;;25.31;55.14
76257;BME280;65074;50.436;8.672;2023-07-09T07:20:10;99806.72;;;25.34;55.20
76257;BME280;65074;50.436;8.672;2023-07-09T07:22:36;99807.28;;;25.48;55.43
76257;BME280;65074;50.436;8.672;2023-07-09T07:25:01;99808.50;;;25.59;55.10
76257;BME280;65074;50.436;8.672;2023-07-09T07:27:28;99800.41;;;25.75;54.94
76257;BME280;65074;50.436;8.672;2023-07-09T07:29:53;99805.97;;;25.87;54.89
76257;BME280;65074;50.436;8.672;2023-07-09T07:32:19;99800.59;;;26.03;53.96
76257;BME280;65074;50.436;8.672;2023-07-09T07:34:46;99797.44;;;26.13;53.36
76257;BME280;65074;50.436;8.672;2023-07-09T07:37:11;99799.16;;;26.17;53.53
76257;BME280;65074;50.436;8.672;2023-07-09T07:39:37;99797.56;;;26.28;54.08
76257;BME280;65074;50.436;8.672;2023-07-09T07:42:02;99793.31;;;26.31;53.74
76257;BME280;65074;50.436;8.672;2023-07-09T07:44:28;99795.19;;;26.39;53.47
76257;BME280;65074;50.436;8.672;2023-07-09T07:46:53;99789.75;;;26.42;53.36
76257;BME280;65074;50.436;8.672;2023-07-09T07:49:18;99795.75;;;26.44;52.51
76257;BME280;65074;50.436;8.672;2023-07-09T07:51:44;99789.44;;;26.56;52.88
76257;BME280;65074;50.436;8.672;2023-07-09T07:54:09;99789.53;;;26.72;51.93
76257;BME280;65074;50.436;8.672;2023-07-09T07:56:36;99795.56;;;26.86;51.82
76257;BME280;65074;50.436;8.672;2023-07-09T07:59:01;99791.50;;;26.95;51.45
76257;BME280;65074;50.436;8.672;2023-07-09T08:01:27;99793.19;;;27.12;50.70
76257;BME280;65074;50.436;8.672;2023-07-09T08:03:53;99796.97;;;27.20;50.94
76257;BME280;65074;50.436;8.672;2023-07-09T08:06:19;99789.09;;;27.34;50.06
76257;BME280;65074;50.436;8.672;2023-07-09T08:08:44;99794.16;;;27.44;50.51
76257;BME280;65074;50.436;8.672;2023-07-09T08:11:09;99789.50;;;27.60;49.83
76257;BME280;65074;50.436;8.672;2023-07-09T08:13:35;99791.28;;;27.52;49.13
76257;BME280;65074;50.436;8.672;2023-07-09T08:16:01;99785.31;;;27.66;48.77
76257;BME280;65074;50.436;8.672;2023-07-09T08:18:27;99784.44;;;27.77;48.41
76257;BME280;65074;50.436;8.672;2023-07-09T08:20:53;99791.50;;;28.03;48.22
76257;BME280;65074;50.436;8.672;2023-07-09T08:23:18;99781.00;;;28.24;46.81
76257;BME280;65074;50.436;8.672;2023-07-09T08:25:44;99783.31;;;28.37;46.77
76257;BME280;65074;50.436;8.672;2023-07-09T08:28:09;99791.25;;;28.55;46.18
76257;BME280;65074;50.436;8.672;2023-07-09T08:30:35;99786.00;;;28.65;45.56
76257;BME280;65074;50.436;8.672;2023-07-09T08:33:01;99784.84;;;28.66;45.54
76257;BME280;65074;50.436;8.672;2023-07-09T08:35:26;99787.13;;;28.80;44.98
76257;BME280;65074;50.436;8.672;2023-07-09T08:37:52;99786.41;;;28.98;44.63
76257;BME280;65074;50.436;8.672;2023-07-09T08:40:17;99788.28;;;29.14;44.17
76257;BME280;65074;50.436;8.672;2023-07-09T08:42:46;99776.81;;;29.31;43.59
76257;BME280;65074;50.436;8.672;2023-07-09T08:45:18;99788.72;;;29.50;43.70
76257;BME280;65074;50.436;8.672;2023-07-09T08:48:04;99783.09;;;29.66;43.05
76257;BME280;65074;50.436;8.672;2023-07-09T08:50:43;99781.94;;;29.86;41.85
76257;BME280;65074;50.436;8.672;2023-07-09T08:53:21;99780.19;;;29.97;41.60
76257;BME280;65074;50.436;8.672;2023-07-09T08:55:50;99777.06;;;30.02;39.93
76257;BME280;65074;50.436;8.672;2023-07-09T08:58:28;99781.34;;;30.19;40.54
76257;BME280;65074;50.436;8.672;2023-07-09T09:01:06;99774.72;;;30.27;39.05
76257;BME280;65074;50.436;8.672;2023-07-09T09:03:42;99772.66;;;30.43;39.49
76257;BME280;65074;50.436;8.672;2023-07-09T09:09:02;99768.78;;;30.74;37.70
76257;BME280;65074;50.436;8.672;2023-07-09T09:16:47;99767.28;;;31.06;37.92
76257;BME280;65074;50.436;8.672;2023-07-09T09:19:29;99763.19;;;31.26;37.01
76257;BME280;65074;50.436;8.672;2023-07-09T09:22:06;99759.84;;;31.43;37.02
76257;BME280;65074;50.436;8.672;2023-07-09T09:24:58;99758.56;;;31.67;36.84
76257;BME280;65074;50.436;8.672;2023-07-09T09:27:27;99753.97;;;31.82;36.54
76257;BME280;65074;50.436;8.672;2023-07-09T09:29:52;99756.94;;;31.99;36.05
76257;BME280;65074;50.436;8.672;2023-07-09T09:32:23;99755.00;;;32.03;35.86
76257;BME280;65074;50.436;8.672;2023-07-09T09:34:50;99760.66;;;32.14;35.40
76257;BME280;65074;50.436;8.672;2023-07-09T09:37:24;99756.78;;;32.26;35.70
76257;BME280;65074;50.436;8.672;2023-07-09T09:39:50;99744.13;;;32.35;35.82
76257;BME280;65074;50.436;8.672;2023-07-09T09:42:16;99747.41;;;32.48;35.63
76257;BME280;65074;50.436;8.672;2023-07-09T09:44:45;99748.00;;;32.67;35.11
76257;BME280;65074;50.436;8.672;2023-07-09T09:47:12;99751.97;;;32.70;35.27
76257;BME280;65074;50.436;8.672;2023-07-09T09:49:41;99746.50;;;32.84;35.08
76257;BME280;65074;50.436;8.672;2023-07-09T09:52:15;99750.13;;;32.92;35.02
76257;BME280;65074;50.436;8.672;2023-07-09T09:54:52;99749.84;;;33.07;34.70
76257;BME280;65074;50.436;8.672;2023-07-09T09:57:21;99750.72;;;33.22;34.22
76257;BME280;65074;50.436;8.672;2023-07-09T09:59:47;99751.53;;;33.26;33.94
76257;BME280;65074;50.436;8.672;2023-07-09T10:02:18;99749.22;;;33.42;34.12
76257;BME280;65074;50.436;8.672;2023-07-09T10:04:45;99746.88;;;33.58;34.14
76257;BME280;65074;50.436;8.672;2023-07-09T10:07:23;99749.34;;;33.81;33.55
76257;BME280;65074;50.436;8.672;2023-07-09T10:09:53;99745.78;;;33.94;33.14
76257;BME280;65074;50.436;8.672;2023-07-09T10:15:08;99745.84;;;34.23;32.85
76257;BME280;65074;50.436;8.672;2023-07-09T10:17:45;99745.03;;;34.26;32.67
76257;BME280;65074;50.436;8.672;2023-07-09T10:20:35;99747.84;;;34.29;32.19
76257;BME280;65074;50.436;8.672;2023-07-09T10:23:23;99736.28;;;34.55;32.43
76257;BME280;65074;50.436;8.672;2023-07-09T10:26:02;99737.81;;;34.85;31.99
76257;BME280;65074;50.436;8.672;2023-07-09T10:31:13;99738.19;;;35.04;30.99
76257;BME280;65074;50.436;8.672;2023-07-09T10:39:05;99730.44;;;35.44;31.22
76257;BME280;65074;50.436;8.672;2023-07-09T10:41:35;99726.41;;;35.48;30.11
76257;BME280;65074;50.436;8.672;2023-07-09T10:46:39;99713.25;;;35.45;31.49
76257;BME280;65074;50.436;8.672;2023-07-09T10:49:10;99709.94;;;35.68;30.56
76257;BME280;65074;50.436;8.672;2023-07-09T10:51:43;99710.72;;;35.72;30.90
76257;BME280;65074;50.436;8.672;2023-07-09T10:54:15;99697.28;;;35.39;30.63
76257;BME280;65074;50.436;8.672;2023-07-09T10:56:42;99695.59;;;35.62;30.28
76257;BME280;65074;50.436;8.672;2023-07-09T11:01:47;99696.72;;;35.72;30.59
76257;BME280;65074;50.436;8.672;2023-07-09T11:04:30;99701.34;;;35.96;29.68
76257;BME280;65074;50.436;8.672;2023-07-09T11:06:58;99704.47;;;36.12;29.53
76257;BME280;65074;50.436;8.672;2023-07-09T11:09:38;99693.53;;;36.25;28.56
76257;BME280;65074;50.436;8.672;2023-07-09T11:12:13;99693.94;;;36.23;28.84
76257;BME280;65074;50.436;8.672;2023-07-09T11:14:56;99690.16;;;36.44;28.99
76257;BME280;65074;50.436;8.672;2023-07-09T11:17:26;99688.38;;;36.64;28.66
76257;BME280;65074;50.436;8.672;2023-07-09T11:19:55;99692.31;;;36.70;28.38
76257;BME280;65074;50.436;8.672;2023-07-09T11:24:51;99685.69;;;36.53;28.47
76257;BME280;65074;50.436;8.672;2023-07-09T11:27:24;99686.88;;;36.52;28.39
76257;BME280;65074;50.436;8.672;2023-07-09T11:30:02;99690.16;;;36.47;28.56
76257;BME280;65074;50.436;8.672;2023-07-09T11:32:28;99684.81;;;36.60;27.89
76257;BME280;65074;50.436;8.672;2023-07-09T11:34:54;99672.25;;;36.72;28.00
76257;BME280;65074;50.436;8.672;2023-07-09T11:37:25;99672.56;;;36.81;28.01
76257;BME280;65074;50.436;8.672;2023-07-09T11:39:51;99667.53;;;37.02;27.29
76257;BME280;65074;50.436;8.672;2023-07-09T11:47:29;99659.72;;;37.17;26.85
76257;BME280;65074;50.436;8.672;2023-07-09T11:50:04;99663.31;;;37.17;26.71
76257;BME280;65074;50.436;8.672;2023-07-09T11:52:52;99654.78;;;36.98;26.85
76257;BME280;65074;50.436;8.672;2023-07-09T11:55:28;99656.00;;;37.24;26.64
76257;BME280;65074;50.436;8.672;2023-07-09T11:57:55;99659.84;;;37.40;26.51
76257;BME280;65074;50.436;8.672;2023-07-09T12:00:21;99650.25;;;37.64;25.62
76257;BME280;65074;50.436;8.672;2023-07-09T12:02:46;99642.53;;;37.95;25.26
76257;BME280;65074;50.436;8.672;2023-07-09T12:05:14;99635.22;;;38.24;24.95
76257;BME280;65074;50.436;8.672;2023-07-09T12:07:44;99634.19;;;38.38;24.66
76257;BME280;65074;50.436;8.672;2023-07-09T12:10:21;99632.88;;;38.85;24.23
76257;BME280;65074;50.436;8.672;2023-07-09T12:12:47;99632.00;;;39.28;23.64
76257;BME280;65074;50.436;8.672;2023-07-09T12:15:18;99634.28;;;39.85;23.20
76257;BME280;65074;50.436;8.672;2023-07-09T12:18:03;99634.22;;;40.04;22.58
76257;BME280;65074;50.436;8.672;2023-07-09T12:20:33;99628.06;;;41.49;21.30
76257;BME280;65074;50.436;8.672;2023-07-09T12:22:59;99614.50;;;41.70;20.37
76257;BME280;65074;50.436;8.672;2023-07-09T12:25:26;99618.81;;;42.21;20.11
76257;BME280;65074;50.436;8.672;2023-07-09T12:27:53;99623.16;;;42.35;18.93
76257;BME280;65074;50.436;8.672;2023-07-09T12:30:19;99614.34;;;42.67;19.05
76257;BME280;65074;50.436;8.672;2023-07-09T12:32:49;99602.78;;;42.40;19.14
76257;BME280;65074;50.436;8.672;2023-07-09T12:35:16;99602.81;;;43.05;17.89
76257;BME280;65074;50.436;8.672;2023-07-09T12:37:43;99587.09;;;43.74;17.63
76257;BME280;65074;50.436;8.672;2023-07-09T12:40:14;99591.91;;;44.59;17.22
76257;BME280;65074;50.436;8.672;2023-07-09T12:42:42;99586.50;;;44.88;17.00
76257;BME280;65074;50.436;8.672;2023-07-09T12:45:19;99586.00;;;44.99;16.43
76257;BME280;65074;50.436;8.672;2023-07-09T12:47:46;99582.44;;;45.64;16.81
76257;BME280;65074;50.436;8.672;2023-07-09T12:50:29;99581.53;;;45.16;16.07
76257;BME280;65074;50.436;8.672;2023-07-09T12:52:56;99572.34;;;45.30;16.09
76257;BME280;65074;50.436;8.672;2023-07-09T12:55:24;99566.19;;;45.64;16.59
76257;BME280;65074;50.436;8.672;2023-07-09T12:57:50;99556.28;;;44.58;16.63
76257;BME280;65074;50.436;8.672;2023-07-09T13:00:17;99555.78;;;44.05;16.62
76257;BME280;65074;50.436;8.672;2023-07-09T13:02:43;99553.72;;;43.96;16.93
76257;BME280;65074;50.436;8.672;2023-07-09T13:05:22;99558.34;;;44.48;16.79
76257;BME280;65074;50.436;8.672;2023-07-09T13:07:57;99554.56;;;44.51;16.50
76257;BME280;65074;50.436;8.672;2023-07-09T13:10:26;99553.53;;;44.91;16.08
76257;BME280;65074;50.436;8.672;2023-07-09T13:12:55;99558.09;;;45.39;16.08
76257;BME280;65074;50.436;8.672;2023-07-09T13:15:31;99552.56;;;45.68;15.96
76257;BME280;65074;50.436;8.672;2023-07-09T13:18:06;99547.50;;;45.72;15.36
76257;BME280;65074;50.436;8.672;2023-07-09T13:20:34;99544.88;;;45.83;14.72
76257;BME280;65074;50.436;8.672;2023-07-09T13:23:08;99540.53;;;45.97;15.40
76257;BME280;65074;50.436;8.672;2023-07-09T13:25:34;99540.09;;;46.13;14.57
76257;BME280;65074;50.436;8.672;2023-07-09T13:28:00;99536.53;;;46.42;14.67
76257;BME280;65074;50.436;8.672;2023-07-09T13:30:26;99532.00;;;46.65;14.77
76257;BME280;65074;50.436;8.672;2023-07-09T13:32:51;99531.34;;;46.55;14.25
76257;BME280;65074;50.436;8.672;2023-07-09T13:35:18;99537.09;;;45.69;13.82
76257;BME280;65074;50.436;8.672;2023-07-09T13:37:45;99534.75;;;45.35;15.15
76257;BME280;65074;50.436;8.672;2023-07-09T13:40:13;99523.31;;;45.44;14.89
76257;BME280;65074;50.436;8.672;2023-07-09T13:42:39;99535.22;;;45.01;14.71